createdAt,value
2023-02-13T00:00:09.297Z,5.60
2023-02-13T00:05:32.049Z,6.00
2023-02-13T00:10:35.342Z,5.40
2023-02-13T00:15:38.029Z,5.90
2023-02-13T00:20:40.752Z,5.40
2023-02-13T00:25:43.464Z,4.70
2023-02-13T00:30:46.163Z,5.90
2023-02-13T00:35:48.877Z,6.00
2023-02-13T00:40:51.657Z,5.20
2023-02-13T00:45:54.554Z,5.90
2023-02-13T00:50:57.756Z,5.70
2023-02-13T00:56:01.168Z,5.20
2023-02-13T01:01:04.087Z,5.70
2023-02-13T01:06:07.695Z,4.70
2023-02-13T01:11:10.413Z,5.00
2023-02-13T01:16:13.411Z,4.60
2023-02-13T01:21:21.858Z,4.60
2023-02-13T01:26:25.065Z,4.40
2023-02-13T01:31:27.810Z,4.40
2023-02-13T01:36:30.663Z,4.10
2023-02-13T01:41:33.358Z,4.10
2023-02-13T01:46:42.827Z,3.50
2023-02-13T01:51:49.563Z,4.30
2023-02-13T01:56:59.141Z,3.50
2023-02-13T02:02:03.117Z,3.90
2023-02-13T02:07:14.501Z,3.50
2023-02-13T02:12:32.406Z,3.20
2023-02-13T02:17:35.145Z,2.90
2023-02-13T02:22:58.022Z,3.70
2023-02-13T02:28:16.526Z,3.90
2023-02-13T02:33:33.274Z,3.40
2023-02-13T02:38:52.017Z,4.00
2023-02-13T02:44:20.410Z,3.40
2023-02-13T02:49:42.122Z,2.70
2023-02-13T02:55:08.474Z,3.00
2023-02-13T03:00:30.632Z,4.20
2023-02-13T03:05:55.268Z,2.60
2023-02-13T03:11:17.013Z,2.90
2023-02-13T03:16:43.312Z,3.70
2023-02-13T03:22:27.851Z,3.00
2023-02-13T03:28:07.685Z,2.90
2023-02-13T03:33:19.302Z,3.40
2023-02-13T03:38:28.682Z,3.40
2023-02-13T03:43:55.447Z,3.20
2023-02-13T03:49:18.214Z,3.00
2023-02-13T03:54:54.193Z,3.50
2023-02-13T03:59:58.704Z,3.00
2023-02-13T04:05:14.715Z,3.20
2023-02-13T04:10:19.325Z,2.80
2023-02-13T04:15:30.144Z,3.30
2023-02-13T04:20:33.087Z,3.40
2023-02-13T04:25:41.333Z,3.20
2023-02-13T04:30:44.264Z,3.10
2023-02-13T04:35:47.115Z,3.40
2023-02-13T04:40:49.819Z,3.60
2023-02-13T04:45:52.531Z,2.90
2023-02-13T04:50:55.993Z,3.50
2023-02-13T04:55:58.937Z,3.70
2023-02-13T05:01:01.748Z,3.20
2023-02-13T05:06:04.717Z,3.60
2023-02-13T05:11:07.445Z,3.30
2023-02-13T05:16:10.199Z,4.90
2023-02-13T05:21:31.555Z,4.20
2023-02-13T05:26:34.381Z,3.70
2023-02-13T05:31:37.136Z,4.00
2023-02-13T05:36:40.183Z,4.50
2023-02-13T05:41:49.467Z,4.10
2023-02-13T05:46:53.395Z,3.60
2023-02-13T05:51:56.184Z,4.70
2023-02-13T05:56:58.849Z,5.10
2023-02-13T06:02:01.627Z,4.70
2023-02-13T06:07:04.430Z,3.60
2023-02-13T06:12:07.184Z,3.50
2023-02-13T06:17:09.858Z,5.40
2023-02-13T06:22:12.671Z,4.50
2023-02-13T06:27:15.327Z,4.30
2023-02-13T06:32:18.153Z,4.30
2023-02-13T06:37:20.982Z,4.90
2023-02-13T06:42:23.887Z,4.50
2023-02-13T06:47:26.577Z,3.50
2023-02-13T06:52:30.513Z,3.70
2023-02-13T06:57:33.953Z,3.60
2023-02-13T07:02:37.457Z,3.20
2023-02-13T07:07:41.818Z,3.40
2023-02-13T07:12:47.282Z,3.90
2023-02-13T07:17:59.291Z,3.70
2023-02-13T07:23:04.711Z,3.50
2023-02-13T07:28:07.596Z,2.90
2023-02-13T07:33:12.726Z,3.00
2023-02-13T07:38:48.916Z,3.00
2023-02-13T07:43:48.152Z,3.40
2023-02-13T07:48:53.960Z,3.00
2023-02-13T07:53:57.714Z,2.50
2023-02-13T07:59:00.585Z,3.40
2023-02-13T08:04:03.718Z,2.80
2023-02-13T08:09:25.640Z,3.10
2023-02-13T08:14:28.484Z,2.50
2023-02-13T08:19:31.359Z,2.40
2023-02-13T08:24:34.271Z,3.10
2023-02-13T08:29:36.934Z,3.10
2023-02-13T08:34:39.840Z,3.00
2023-02-13T08:39:42.761Z,2.90
2023-02-13T08:44:48.787Z,2.70
2023-02-13T08:49:52.196Z,2.40
2023-02-13T08:54:55.187Z,2.50
2023-02-13T08:59:57.963Z,2.90
2023-02-13T09:05:00.733Z,3.40
2023-02-13T09:10:03.684Z,3.00
2023-02-13T09:15:06.523Z,2.60
2023-02-13T09:20:10.291Z,2.70
2023-02-13T09:25:13.444Z,2.90
2023-02-13T09:30:23.195Z,3.20
2023-02-13T09:35:26.060Z,3.10
2023-02-13T09:40:35.144Z,2.90
2023-02-13T09:45:38.814Z,2.40
2023-02-13T09:50:41.738Z,2.40
2023-02-13T09:55:54.750Z,2.70
2023-02-13T10:01:00.754Z,2.40
2023-02-13T10:06:09.644Z,2.50
2023-02-13T10:11:39.145Z,2.70
2023-02-13T10:17:01.476Z,3.70
2023-02-13T10:22:20.550Z,4.30
2023-02-13T10:27:31.386Z,3.80
2023-02-13T10:33:11.575Z,3.80
2023-02-13T10:38:59.333Z,3.80
2023-02-13T10:44:27.272Z,4.30
2023-02-13T10:49:53.143Z,4.80
2023-02-13T10:55:20.295Z,3.70
2023-02-13T11:00:31.465Z,3.90
2023-02-13T11:05:39.694Z,4.00
2023-02-13T11:10:42.548Z,2.90
2023-02-13T11:15:57.171Z,2.40
2023-02-13T11:21:34.812Z,2.50
2023-02-13T11:26:39.955Z,3.00
2023-02-13T11:31:42.848Z,2.50
2023-02-13T11:36:45.774Z,2.80
2023-02-13T11:41:51.111Z,2.60
2023-02-13T11:46:56.156Z,2.60
2023-02-13T11:52:24.835Z,3.00
2023-02-13T11:57:37.799Z,2.50
2023-02-13T12:02:52.738Z,2.60
2023-02-13T12:08:00.298Z,2.80
2023-02-13T12:13:03.014Z,2.60
2023-02-13T12:18:08.650Z,2.50
2023-02-13T12:23:23.144Z,2.60
2023-02-13T12:28:35.603Z,2.60
2023-02-13T12:34:22.592Z,2.60
2023-02-13T12:39:28.778Z,2.50
2023-02-13T12:44:46.133Z,3.70
2023-02-13T12:50:01.347Z,2.40
2023-02-13T12:55:16.951Z,2.50
2023-02-13T13:00:19.780Z,2.80
2023-02-13T13:05:27.540Z,2.50
2023-02-13T13:15:59.664Z,2.80
2023-02-13T13:21:17.230Z,2.90
2023-02-13T13:26:39.023Z,2.70
2023-02-13T13:32:07.772Z,2.80
2023-02-13T13:37:29.895Z,2.80
2023-02-13T13:42:59.318Z,2.80
2023-02-13T13:48:10.565Z,2.50
2023-02-13T13:53:25.588Z,2.90
2023-02-13T13:58:50.289Z,3.10
2023-02-13T14:03:57.589Z,2.80
2023-02-13T14:09:06.374Z,3.00
2023-02-13T14:14:27.424Z,2.80
2023-02-13T14:19:32.407Z,2.50
2023-02-13T14:24:36.097Z,2.90
2023-02-13T14:29:39.107Z,2.70
2023-02-13T14:34:49.255Z,2.50
2023-02-13T14:40:17.911Z,2.20
2023-02-13T14:45:33.143Z,3.00
2023-02-13T14:50:52.399Z,2.80
2023-02-13T14:56:08.822Z,2.70
2023-02-13T15:01:21.172Z,2.80
2023-02-13T15:06:34.548Z,2.40
2023-02-13T15:11:43.716Z,2.70
2023-02-13T15:16:51.592Z,2.70
2023-02-13T15:22:00.699Z,3.00
2023-02-13T15:27:06.163Z,2.60
2023-02-13T15:32:20.531Z,2.50
2023-02-13T15:37:27.178Z,3.10
2023-02-13T15:42:29.956Z,2.50
2023-02-13T15:47:34.105Z,3.00
2023-02-13T15:52:39.070Z,2.50
2023-02-13T15:57:41.811Z,2.50
2023-02-13T16:02:47.905Z,3.50
2023-02-13T16:07:54.108Z,2.80
2023-02-13T16:13:00.519Z,2.80
2023-02-13T16:18:06.267Z,3.30
2023-02-13T16:23:18.183Z,3.10
2023-02-13T16:28:27.574Z,2.20
2023-02-13T16:33:32.315Z,3.10
2023-02-13T16:38:37.519Z,2.60
2023-02-13T16:43:54.137Z,2.70
2023-02-13T16:54:04.962Z,3.20
2023-02-13T16:59:28.133Z,3.10
2023-02-13T17:04:31.067Z,2.60
2023-02-13T17:09:33.781Z,6.50
2023-02-13T17:14:36.568Z,5.50
2023-02-13T17:19:39.369Z,5.00
2023-02-13T17:24:42.069Z,5.70
2023-02-13T17:29:44.726Z,6.20
2023-02-13T17:34:47.880Z,7.00
2023-02-13T17:39:50.764Z,7.10
2023-02-13T17:44:55.414Z,6.70
2023-02-13T17:50:08.882Z,6.30
2023-02-13T17:55:16.176Z,7.10
2023-02-13T18:00:20.937Z,5.90
2023-02-13T18:05:23.768Z,5.70
2023-02-13T18:10:28.264Z,4.60
2023-02-13T18:15:35.804Z,3.80
2023-02-13T18:20:39.203Z,3.50
2023-02-13T18:25:41.870Z,3.80
2023-02-13T18:30:44.653Z,5.10
2023-02-13T18:35:47.432Z,6.20
2023-02-13T18:40:50.120Z,7.30
2023-02-13T18:45:52.922Z,7.70
2023-02-13T18:50:55.747Z,6.80
2023-02-13T18:56:03.772Z,5.20
2023-02-13T19:01:19.035Z,4.80
2023-02-13T19:06:24.149Z,4.50
2023-02-13T19:11:27.836Z,3.70
2023-02-13T19:16:32.203Z,3.90
2023-02-13T19:21:38.003Z,4.60
2023-02-13T19:26:41.011Z,5.20
2023-02-13T19:31:43.931Z,6.60
2023-02-13T19:36:46.915Z,5.50
2023-02-13T19:41:49.615Z,6.60
2023-02-13T19:46:52.305Z,5.00
2023-02-13T19:51:54.997Z,4.30
2023-02-13T19:57:05.101Z,4.40
2023-02-13T20:02:14.253Z,4.40
2023-02-13T20:07:17.131Z,4.90
2023-02-13T20:12:19.825Z,4.70
2023-02-13T20:17:25.478Z,4.70
2023-02-13T20:22:28.208Z,4.00
2023-02-13T20:27:30.884Z,4.90
2023-02-13T20:32:33.654Z,4.00
2023-02-13T20:37:36.498Z,4.10
2023-02-13T20:42:39.203Z,4.40
2023-02-13T20:47:42.930Z,4.60
2023-02-13T20:52:45.723Z,4.40
2023-02-13T20:57:48.617Z,4.50
2023-02-13T21:02:52.008Z,5.20
2023-02-13T21:07:54.763Z,4.30
2023-02-13T21:12:57.462Z,4.70
2023-02-13T21:18:01.801Z,4.50
2023-02-13T21:23:05.596Z,4.70
2023-02-13T21:28:08.603Z,4.50
2023-02-13T21:33:11.303Z,4.60
2023-02-13T21:38:14.006Z,4.80
2023-02-13T21:43:16.818Z,4.90
2023-02-13T21:48:19.506Z,4.80
2023-02-13T21:53:22.234Z,5.30
2023-02-13T21:58:26.146Z,5.00
2023-02-13T22:03:28.893Z,4.80
2023-02-13T22:08:31.575Z,4.80
2023-02-13T22:13:34.932Z,5.60
2023-02-13T22:18:43.596Z,6.60
2023-02-13T22:23:47.401Z,6.20
2023-02-13T22:28:51.534Z,5.70
2023-02-13T22:34:04.338Z,4.70
2023-02-13T22:39:09.579Z,5.40
2023-02-13T22:44:12.307Z,6.00
2023-02-13T22:49:14.981Z,5.40
2023-02-13T22:54:17.735Z,5.40
2023-02-13T22:59:20.533Z,5.80
2023-02-13T23:04:23.284Z,5.90
2023-02-13T23:09:26.742Z,7.30
2023-02-13T23:14:29.421Z,6.90
2023-02-13T23:19:32.245Z,5.50
2023-02-13T23:24:34.991Z,5.80
2023-02-13T23:29:37.749Z,4.40
2023-02-13T23:34:40.429Z,7.40
2023-02-13T23:39:43.347Z,7.20
2023-02-13T23:44:46.030Z,7.10
2023-02-13T23:49:49.133Z,7.40
2023-02-13T23:54:51.817Z,6.50
2023-02-13T23:59:54.480Z,7.70
